»·PEaware :: N172GW KSBA-KBUR

N172GW :: KSBA-KBUR

FLIGHT INFORMATION

Flight Status: Arrived
Operator: Privately registered:
United States
More flights under this callsign
Pilot: Victor C. (32144)
Aircraft: CESSNA 172 SKYHAWK
(C172)
More flights by this aircraft type
Origin: KSBA Santa Barbara Mun
United States
Destination: KBUR Bob Hope-Burbank
United States
More flights between these airports :: More routes between these airports
Route:
File this flight plan on PilotEdge
Remarks: CAT 8
Altitude:
(Current/Filed)
7,500ft
Speed:
(Current/Filed)
110kts
Departed: 18-Dec-20 01:25 PM
Arrived: 18-Dec-20 02:05 PM
Distance/Time
Traveled:
75nm/0:40
Distance/Time
To Go:
Arrived

Flight Plot

Page will automatically refresh every two minutes.


Map Options




Map Legend


Flown Route
Filed Route
Departure Airport
Arrival Airport
Navaid (VOR, NDB)
Fix

Horizontal Profiles

Position Reports

Time Latitude Longitude Heading Altitude Ground
Speed
18-Dec-20 13:02 34.432809 -119.835927 248 12ft 0kts
18-Dec-20 13:03 34.432808 -119.835927 248 12ft 0kts
18-Dec-20 13:04 34.432808 -119.835927 248 12ft 0kts
18-Dec-20 13:05 34.432808 -119.835927 248 12ft 0kts
18-Dec-20 13:06 34.432808 -119.835927 248 12ft 0kts
18-Dec-20 13:07 34.432808 -119.835927 248 12ft 0kts
18-Dec-20 13:08 34.432808 -119.835927 248 12ft 0kts
18-Dec-20 13:09 34.432809 -119.835927 248 12ft 0kts
18-Dec-20 13:10 34.432809 -119.835927 248 12ft 0kts
18-Dec-20 13:11 34.432809 -119.835927 248 12ft 0kts
18-Dec-20 13:12 34.432809 -119.835927 248 12ft 0kts
18-Dec-20 13:13 34.432809 -119.835928 248 12ft 0kts
18-Dec-20 13:14 34.432809 -119.835927 248 12ft 0kts
18-Dec-20 13:15 34.432809 -119.835928 248 12ft 0kts
18-Dec-20 13:16 34.432499 -119.835943 158 12ft 6kts
18-Dec-20 13:17 34.431965 -119.835917 210 12ft 11kts
18-Dec-20 13:18 34.430704 -119.838853 172 12ft 0kts
18-Dec-20 13:19 34.430679 -119.838875 249 12ft 0kts
18-Dec-20 13:20 34.430679 -119.838875 249 12ft 0kts
18-Dec-20 13:21 34.430679 -119.838875 249 12ft 0kts
18-Dec-20 13:22 34.430721 -119.839071 300 12ft 6kts
18-Dec-20 13:23 34.430428 -119.840244 187 11ft 8kts
18-Dec-20 13:24 34.414820 -119.835808 173 282ft 89kts
18-Dec-20 13:25 34.390967 -119.827794 167 996ft 97kts
18-Dec-20 13:26 34.365114 -119.815669 129 1642ft 99kts
18-Dec-20 13:27 34.368865 -119.781323 80 2278ft 106kts
18-Dec-20 13:28 34.379186 -119.745323 73 2681ft 129kts
18-Dec-20 13:29 34.389005 -119.701539 69 3027ft 125kts
18-Dec-20 13:30 34.395643 -119.662397 74 3733ft 114kts
18-Dec-20 13:31 34.393607 -119.625331 105 4414ft 108kts
18-Dec-20 13:32 34.386738 -119.588737 99 4915ft 113kts
18-Dec-20 13:33 34.380130 -119.551050 109 5417ft 115kts
18-Dec-20 13:34 34.370084 -119.514153 101 5914ft 114kts
18-Dec-20 13:35 34.362969 -119.476671 98 6420ft 113kts
18-Dec-20 13:36 34.356299 -119.439751 99 6921ft 111kts
18-Dec-20 13:37 34.349860 -119.403558 98 7363ft 114kts
18-Dec-20 13:38 34.342481 -119.363246 105 7562ft 131kts
18-Dec-20 13:39 34.332481 -119.317708 106 7534ft 142kts
18-Dec-20 13:40 34.323545 -119.271586 105 7557ft 142kts
18-Dec-20 13:41 34.313816 -119.225158 105 7538ft 142kts
18-Dec-20 13:42 34.309789 -119.178131 80 7528ft 138kts
18-Dec-20 13:43 34.313001 -119.133711 82 7497ft 130kts
18-Dec-20 13:44 34.311921 -119.089690 89 7517ft 133kts
18-Dec-20 13:45 34.309648 -119.044629 94 7495ft 131kts
18-Dec-20 13:46 34.303240 -119.001711 98 7511ft 131kts
18-Dec-20 13:47 34.296431 -118.958148 93 7512ft 131kts
18-Dec-20 13:48 34.288830 -118.914673 98 7536ft 134kts
18-Dec-20 13:49 34.280821 -118.872420 105 7525ft 134kts
18-Dec-20 13:50 34.271867 -118.826921 100 6969ft 139kts
18-Dec-20 13:51 34.263637 -118.781429 102 6389ft 138kts
18-Dec-20 13:52 34.257091 -118.737072 89 5794ft 129kts
18-Dec-20 13:53 34.254858 -118.695919 102 5194ft 121kts
18-Dec-20 13:54 34.251248 -118.655426 106 4468ft 114kts
18-Dec-20 13:55 34.247324 -118.618097 99 3797ft 111kts
18-Dec-20 13:56 34.244260 -118.582124 110 3274ft 96kts
18-Dec-20 13:57 34.237722 -118.553919 132 3220ft 80kts
18-Dec-20 13:58 34.219434 -118.530619 144 2841ft 93kts
18-Dec-20 13:59 34.201681 -118.507446 109 2630ft 95kts
18-Dec-20 14:00 34.200473 -118.475503 92 2601ft 97kts
18-Dec-20 14:01 34.200259 -118.442890 92 2430ft 103kts
18-Dec-20 14:02 34.198849 -118.408471 96 1765ft 95kts
18-Dec-20 14:03 34.198231 -118.380145 102 1061ft 68kts
18-Dec-20 14:04 34.197798 -118.362028 96 736ft 30kts
18-Dec-20 14:05 34.198579 -118.360238 356 737ft 0kts
18-Dec-20 14:06 34.198579 -118.360238 356 737ft 0kts
18-Dec-20 14:07 34.198579 -118.360238 356 737ft 0kts
18-Dec-20 14:08 34.198579 -118.360238 357 737ft 0kts
18-Dec-20 14:09 34.199680 -118.359424 71 737ft 10kts
18-Dec-20 14:10 34.200846 -118.358970 252 737ft 0kts
18-Dec-20 14:11 34.200846 -118.358970 252 737ft 0kts
18-Dec-20 14:12 34.200846 -118.358970 252 737ft 0kts
18-Dec-20 14:13 34.200846 -118.358970 252 737ft 0kts
18-Dec-20 14:14 34.200846 -118.358970 252 737ft 0kts
18-Dec-20 14:15 34.200846 -118.358970 252 737ft 0kts

Navigation Log

Ident Type
Flight plan parsing failed, navigation log unavailable